Time;durP1;ratioP1;P1;durP2;ratioP2;P2;SDS_P1;SDS_P2;PMS_P1;PMS_P2;Temp;Humidity;BMP_temperature;BMP_pressure;BME280_temperature;BME280_humidity;BME280_pressure;Samples;Min_cycle;Max_cycle;Signal;HPM_P1;HPM_P2
2020/12/29 00:01:38;;;;;;;8.07;4.03;;;15.40;66.60;;;;;;4980936;28;20039;-65
2020/12/29 00:04:05;;;;;;;9.80;4.03;;;15.40;66.50;;;;;;4964741;28;20069;-71
2020/12/29 00:06:31;;;;;;;9.32;4.15;;;15.40;66.60;;;;;;4973351;28;20040;-69
2020/12/29 00:08:57;;;;;;;10.68;4.30;;;15.40;66.60;;;;;;4967635;28;20166;-69
2020/12/29 00:11:23;;;;;;;10.57;4.30;;;15.40;66.50;;;;;;4964502;28;20110;-69
2020/12/29 00:13:49;;;;;;;7.25;3.90;;;15.40;66.50;;;;;;4985639;28;20022;-70
2020/12/29 00:16:15;;;;;;;9.93;4.13;;;15.40;67.10;;;;;;4978896;28;20035;-68
2020/12/29 00:18:40;;;;;;;10.40;4.28;;;15.40;66.50;;;;;;4964704;28;20026;-67
2020/12/29 00:21:06;;;;;;;10.15;3.85;;;15.40;66.70;;;;;;4979416;28;20105;-70
2020/12/29 00:23:31;;;;;;;9.15;3.85;;;15.30;66.60;;;;;;4978486;28;20030;-67
2020/12/29 00:25:57;;;;;;;8.88;4.35;;;15.40;66.70;;;;;;4978920;28;20031;-64
2020/12/29 00:28:23;;;;;;;8.95;4.10;;;15.30;66.70;;;;;;4980263;28;20023;-66
2020/12/29 00:30:48;;;;;;;7.72;3.55;;;15.30;66.60;;;;;;4963785;28;20169;-71
2020/12/29 00:33:14;;;;;;;9.43;3.45;;;15.40;67.20;;;;;;4984350;28;20084;-66
2020/12/29 00:35:39;;;;;;;9.40;3.97;;;15.30;66.60;;;;;;4979716;28;20526;-68
2020/12/29 00:38:07;;;;;;;7.68;3.50;;;15.40;66.60;;;;;;4975810;28;20019;-67
2020/12/29 00:40:33;;;;;;;7.55;3.60;;;15.30;66.60;;;;;;4984000;28;20030;-68
2020/12/29 00:42:58;;;;;;;9.00;3.60;;;15.30;66.50;;;;;;4986210;28;20465;-67
2020/12/29 00:45:23;;;;;;;8.57;3.58;;;15.30;66.60;;;;;;4989389;28;20118;-67
2020/12/29 00:47:49;;;;;;;8.32;3.50;;;15.30;66.50;;;;;;4972626;28;20109;-67
2020/12/29 00:50:14;;;;;;;10.57;3.63;;;15.20;66.60;;;;;;4988922;28;20018;-67
2020/12/29 00:52:40;;;;;;;9.05;3.70;;;15.30;66.60;;;;;;4985759;28;20019;-66
2020/12/29 00:55:05;;;;;;;8.27;3.42;;;15.30;66.50;;;;;;4988506;28;20034;-67
2020/12/29 00:57:31;;;;;;;7.25;3.15;;;15.30;66.40;;;;;;4971595;28;20476;-68
2020/12/29 00:59:56;;;;;;;9.35;3.67;;;15.30;66.50;;;;;;4989334;28;20022;-67
2020/12/29 01:02:22;;;;;;;7.85;3.30;;;15.30;66.50;;;;;;4978682;28;20523;-67
2020/12/29 01:04:47;;;;;;;7.13;3.55;;;15.30;66.50;;;;;;4972079;28;20125;-67
2020/12/29 01:07:13;;;;;;;6.88;2.80;;;15.30;66.60;;;;;;4967811;28;20031;-65
2020/12/29 01:09:38;;;;;;;7.40;3.45;;;15.30;66.50;;;;;;4979918;28;20900;-66
2020/12/29 01:12:04;;;;;;;8.52;3.50;;;15.20;66.40;;;;;;4977890;28;20488;-67
2020/12/29 01:14:29;;;;;;;10.07;3.35;;;15.20;66.50;;;;;;4988079;28;20065;-68
2020/12/29 01:16:55;;;;;;;8.45;3.53;;;15.20;66.50;;;;;;4971951;28;20062;-67
2020/12/29 01:19:20;;;;;;;9.38;3.50;;;15.20;66.40;;;;;;4990402;28;20065;-64
2020/12/29 01:21:49;;;;;;;7.00;3.08;;;15.20;66.50;;;;;;4980370;28;20035;-66
2020/12/29 01:24:15;;;;;;;7.30;3.17;;;15.20;66.50;;;;;;4989021;28;20026;-67
2020/12/29 01:26:40;;;;;;;6.75;3.08;;;15.20;67.00;;;;;;4988142;28;20035;-66
2020/12/29 01:29:06;;;;;;;6.30;2.90;;;15.20;66.50;;;;;;4981079;28;20447;-68
2020/12/29 01:31:32;;;;;;;7.55;3.35;;;15.20;66.50;;;;;;4964362;28;20058;-68
2020/12/29 01:33:59;;;;;;;6.32;3.05;;;15.20;66.50;;;;;;4970179;28;20056;-68
2020/12/29 01:36:25;;;;;;;7.88;3.05;;;15.20;66.50;;;;;;4978044;28;20114;-67
2020/12/29 01:38:50;;;;;;;6.75;3.05;;;15.20;66.50;;;;;;4980684;28;20073;-69
2020/12/29 01:41:18;;;;;;;7.13;2.95;;;15.20;66.70;;;;;;4963626;28;20049;-67
2020/12/29 01:43:43;;;;;;;6.68;2.60;;;15.20;66.70;;;;;;4974221;28;20034;-64
2020/12/29 01:46:09;;;;;;;8.55;3.20;;;15.10;66.80;;;;;;4976200;28;20029;-67
2020/12/29 01:48:35;;;;;;;6.25;2.88;;;15.10;66.80;;;;;;4974872;28;20019;-67
2020/12/29 01:51:00;;;;;;;7.80;2.92;;;15.10;66.80;;;;;;4957548;28;20023;-67
2020/12/29 01:53:26;;;;;;;8.40;2.60;;;15.20;66.90;;;;;;4974143;28;20027;-64
2020/12/29 01:55:52;;;;;;;6.18;2.45;;;15.20;66.80;;;;;;4965728;28;20023;-67
2020/12/29 01:58:18;;;;;;;7.00;2.80;;;15.20;66.90;;;;;;4973173;28;20392;-67
2020/12/29 02:00:45;;;;;;;9.80;3.10;;;15.10;66.80;;;;;;4979496;28;20027;-67
2020/12/29 02:03:13;;;;;;;7.30;2.92;;;15.10;66.80;;;;;;4964693;28;20034;-70
2020/12/29 02:05:40;;;;;;;6.28;2.75;;;15.10;66.80;;;;;;4991805;28;20037;-68
2020/12/29 02:08:06;;;;;;;6.13;2.60;;;15.10;66.90;;;;;;4973952;28;20379;-66
2020/12/29 02:10:32;;;;;;;7.00;2.65;;;15.10;66.90;;;;;;4983016;28;20034;-67
2020/12/29 02:12:58;;;;;;;6.10;2.80;;;15.00;66.80;;;;;;4991302;28;20032;-67
2020/12/29 02:15:23;;;;;;;7.03;2.40;;;15.10;67.00;;;;;;4995112;28;20475;-69
2020/12/29 02:17:49;;;;;;;7.55;2.50;;;15.10;67.00;;;;;;4974234;28;20026;-67
2020/12/29 02:20:14;;;;;;;8.68;2.63;;;15.00;66.90;;;;;;4990711;28;20122;-68
2020/12/29 02:22:40;;;;;;;5.47;3.00;;;15.00;66.80;;;;;;4989698;28;20057;-67
2020/12/29 02:25:07;;;;;;;7.95;2.90;;;15.00;66.90;;;;;;4989832;28;20501;-66
2020/12/29 02:27:43;;;;;;;6.18;2.78;;;15.00;66.90;;;;;;4971855;28;20036;-69
2020/12/29 02:30:09;;;;;;;6.00;2.60;;;15.00;67.10;;;;;;4986992;28;20015;-68
2020/12/29 02:32:34;;;;;;;5.85;2.60;;;15.00;67.10;;;;;;4987671;28;20084;-67
2020/12/29 02:35:00;;;;;;;6.43;2.60;;;15.00;67.10;;;;;;4989830;28;20105;-67
2020/12/29 02:37:25;;;;;;;7.03;2.50;;;15.00;67.10;;;;;;4989419;28;20030;-67
2020/12/29 02:39:52;;;;;;;7.65;2.70;;;14.90;67.00;;;;;;4987075;28;20030;-67
2020/12/29 02:42:19;;;;;;;7.03;2.70;;;14.90;67.10;;;;;;4990556;28;20034;-66
2020/12/29 02:44:45;;;;;;;5.38;2.20;;;14.90;67.10;;;;;;4990804;28;20026;-67
2020/12/29 02:47:10;;;;;;;7.85;2.30;;;14.90;67.10;;;;;;4973885;28;20541;-69
2020/12/29 02:49:36;;;;;;;5.20;2.30;;;14.90;67.10;;;;;;4990980;28;20391;-66
2020/12/29 02:52:03;;;;;;;5.82;2.20;;;14.90;67.00;;;;;;4973725;28;20019;-67
2020/12/29 02:54:29;;;;;;;4.88;2.20;;;14.90;67.00;;;;;;4969371;28;20018;-67
2020/12/29 02:56:55;;;;;;;5.50;2.05;;;14.90;67.00;;;;;;4977806;28;20041;-68
2020/12/29 02:59:24;;;;;;;4.90;2.20;;;14.80;67.00;;;;;;4973218;28;20165;-67
2020/12/29 03:01:50;;;;;;;5.55;2.20;;;14.80;67.00;;;;;;4979538;28;20129;-67
2020/12/29 03:04:19;;;;;;;6.03;2.40;;;14.80;66.90;;;;;;4955685;28;20063;-66
2020/12/29 03:06:45;;;;;;;5.40;2.35;;;14.80;67.00;;;;;;4990672;28;20066;-71
2020/12/29 03:09:12;;;;;;;5.43;2.08;;;14.80;67.10;;;;;;4989305;28;20093;-66
2020/12/29 03:11:38;;;;;;;4.57;2.05;;;14.80;66.90;;;;;;4979399;28;20035;-69
2020/12/29 03:14:06;;;;;;;4.38;2.17;;;14.80;66.70;;;;;;4969220;28;20072;-66
2020/12/29 03:16:32;;;;;;;4.93;2.22;;;14.90;66.60;;;;;;4957991;28;20030;-66
2020/12/29 03:18:57;;;;;;;5.47;2.08;;;14.80;66.50;;;;;;4973339;28;20022;-67
2020/12/29 03:21:23;;;;;;;4.38;2.10;;;14.80;66.50;;;;;;4991037;28;20054;-66
2020/12/29 03:23:49;;;;;;;4.25;2.13;;;14.90;66.50;;;;;;4966326;28;20054;-67
2020/12/29 03:26:18;;;;;;;4.35;2.00;;;14.90;66.40;;;;;;4957434;28;20033;-65
2020/12/29 03:28:44;;;;;;;5.03;2.22;;;14.90;66.40;;;;;;4972878;28;20093;-68
2020/12/29 03:31:09;;;;;;;6.10;2.00;;;14.80;66.40;;;;;;4971580;28;20512;-66
2020/12/29 03:33:35;;;;;;;4.07;2.00;;;14.80;66.40;;;;;;4980124;28;20053;-67
2020/12/29 03:36:01;;;;;;;4.43;2.00;;;14.80;66.50;;;;;;4975951;28;20027;-66
2020/12/29 03:38:27;;;;;;;6.38;2.10;;;14.80;66.50;;;;;;4987169;28;20498;-66
2020/12/29 03:40:53;;;;;;;5.82;2.22;;;14.80;66.50;;;;;;4959307;28;20022;-67
2020/12/29 03:43:19;;;;;;;4.70;1.90;;;14.80;66.50;;;;;;4990018;28;20014;-67
2020/12/29 03:45:46;;;;;;;4.85;2.00;;;14.80;66.50;;;;;;4990801;28;20034;-66
2020/12/29 03:48:13;;;;;;;6.38;2.05;;;14.80;66.50;;;;;;4973771;28;20026;-68
2020/12/29 03:50:40;;;;;;;5.40;2.55;;;14.80;66.50;;;;;;4975843;28;20106;-65
2020/12/29 03:53:06;;;;;;;5.03;2.20;;;14.80;66.50;;;;;;4993664;28;20060;-67
2020/12/29 03:55:36;;;;;;;4.78;1.83;;;14.80;67.10;;;;;;4994125;28;20062;-66
2020/12/29 03:58:02;;;;;;;4.88;1.90;;;14.80;66.50;;;;;;4993851;28;20033;-66
2020/12/29 04:00:27;;;;;;;3.78;1.73;;;14.80;66.50;;;;;;4992344;28;20034;-68
2020/12/29 04:02:53;;;;;;;6.25;1.90;;;14.80;66.50;;;;;;4974500;28;20057;-67
2020/12/29 04:05:19;;;;;;;5.03;1.67;;;14.80;66.50;;;;;;4974641;28;20510;-67
2020/12/29 04:07:45;;;;;;;3.70;1.60;;;14.80;66.50;;;;;;4989404;28;20041;-71
2020/12/29 04:10:11;;;;;;;4.85;1.75;;;14.70;66.40;;;;;;4993126;28;20034;-67
2020/12/29 04:12:38;;;;;;;5.80;1.70;;;14.70;66.40;;;;;;4989814;28;20069;-67
2020/12/29 04:15:07;;;;;;;4.82;2.05;;;14.70;66.40;;;;;;4991394;28;20022;-67
2020/12/29 04:17:36;;;;;;;3.75;1.60;;;14.70;66.40;;;;;;4991743;28;20096;-67
2020/12/29 04:20:05;;;;;;;2.92;1.60;;;14.70;66.40;;;;;;4971059;28;20038;-67
2020/12/29 04:22:32;;;;;;;5.30;1.80;;;14.70;66.40;;;;;;4961924;28;20420;-69
2020/12/29 04:24:58;;;;;;;4.38;1.52;;;14.60;66.40;;;;;;4978749;28;20032;-63
2020/12/29 04:27:24;;;;;;;4.88;1.80;;;14.70;66.50;;;;;;4987857;28;20023;-70
2020/12/29 04:29:50;;;;;;;4.18;1.83;;;14.60;66.50;;;;;;4975119;28;20398;-66
2020/12/29 04:32:16;;;;;;;5.57;1.67;;;14.60;66.50;;;;;;4986791;28;20033;-68
2020/12/29 04:34:42;;;;;;;3.60;1.70;;;14.60;66.60;;;;;;4988371;28;20031;-67
2020/12/29 04:37:08;;;;;;;5.63;1.80;;;14.60;66.40;;;;;;4980876;28;20033;-68
2020/12/29 04:39:33;;;;;;;4.28;1.67;;;14.60;66.40;;;;;;4975445;28;20121;-68
2020/12/29 04:42:28;;;;;;;4.35;1.73;;;14.60;66.40;;;;;;4975769;28;20069;-68
2020/12/29 04:44:54;;;;;;;3.17;1.58;;;14.60;66.10;;;;;;4967090;28;20133;-69
2020/12/29 04:47:23;;;;;;;3.85;1.67;;;14.60;66.30;;;;;;4984121;28;20642;-69
2020/12/29 04:49:49;;;;;;;4.28;1.75;;;14.60;66.30;;;;;;4980145;28;20034;-66
2020/12/29 04:52:14;;;;;;;3.90;1.55;;;14.60;66.20;;;;;;4975720;28;20077;-67
2020/12/29 04:54:41;;;;;;;3.35;1.50;;;14.60;66.10;;;;;;4977600;28;20109;-67
2020/12/29 04:57:08;;;;;;;4.22;1.75;;;14.60;66.10;;;;;;4986102;28;20274;-66
2020/12/29 04:59:35;;;;;;;4.70;1.80;;;14.60;66.10;;;;;;4984873;28;20030;-67
2020/12/29 05:02:02;;;;;;;3.25;1.60;;;14.60;66.00;;;;;;4978849;28;20038;-69
2020/12/29 05:04:31;;;;;;;4.50;1.45;;;14.60;66.00;;;;;;4977641;28;20069;-67
2020/12/29 05:06:58;;;;;;;4.95;1.60;;;14.60;65.90;;;;;;4990386;28;20026;-66
2020/12/29 05:09:25;;;;;;;2.90;1.48;;;14.60;66.00;;;;;;4966175;28;20432;-67
2020/12/29 05:11:51;;;;;;;3.10;1.60;;;14.50;65.80;;;;;;4986642;28;20084;-67
2020/12/29 05:14:17;;;;;;;3.15;1.48;;;14.50;65.80;;;;;;4976649;28;20031;-67
2020/12/29 05:16:43;;;;;;;4.10;1.73;;;14.50;65.80;;;;;;4988755;28;20066;-69
2020/12/29 05:19:11;;;;;;;3.05;1.40;;;14.50;65.70;;;;;;4993209;28;20030;-67
2020/12/29 05:21:38;;;;;;;6.05;1.50;;;14.50;65.80;;;;;;4964609;28;20030;-66
2020/12/29 05:24:17;;;;;;;4.80;1.60;;;14.50;65.80;;;;;;4988539;28;20387;-67
2020/12/29 05:26:45;;;;;;;5.88;1.52;;;14.50;65.80;;;;;;4977879;28;20500;-66
2020/12/29 05:29:12;;;;;;;3.42;1.58;;;14.40;65.80;;;;;;4972690;28;20019;-66
2020/12/29 05:31:39;;;;;;;5.40;1.98;;;14.40;65.90;;;;;;4974660;28;20027;-68
2020/12/29 05:34:05;;;;;;;4.10;1.50;;;14.40;65.80;;;;;;4977373;28;20030;-67
2020/12/29 05:36:36;;;;;;;4.07;1.48;;;14.50;65.80;;;;;;4989356;28;20035;-67
2020/12/29 05:39:09;;;;;;;6.30;2.60;;;14.40;65.60;;;;;;4973919;28;20030;-66
2020/12/29 05:41:44;;;;;;;11.02;5.28;;;14.40;65.50;;;;;;4986510;28;20030;-64
2020/12/29 05:44:14;;;;;;;9.77;5.03;;;14.40;65.30;;;;;;4969106;28;20042;-69
2020/12/29 05:46:40;;;;;;;10.35;4.10;;;14.40;65.20;;;;;;4961139;28;20045;-68
2020/12/29 05:49:06;;;;;;;8.02;2.92;;;14.50;65.30;;;;;;4956300;28;20028;-69
2020/12/29 05:51:34;;;;;;;8.23;2.65;;;14.50;65.30;;;;;;4967638;28;20049;-66
2020/12/29 05:54:04;;;;;;;7.82;2.60;;;14.50;65.20;;;;;;4958151;28;20031;-68
2020/12/29 05:56:32;;;;;;;7.38;2.20;;;14.60;65.40;;;;;;4965537;28;20035;-67
2020/12/29 05:58:59;;;;;;;4.30;2.15;;;14.70;65.40;;;;;;4972037;28;20202;-68
2020/12/29 06:01:36;;;;;;;5.47;2.00;;;14.70;65.30;;;;;;4966222;28;20019;-67
2020/12/29 06:04:03;;;;;;;5.57;2.40;;;14.80;65.00;;;;;;4969512;28;20126;-67
2020/12/29 06:06:31;;;;;;;5.43;1.83;;;14.80;65.00;;;;;;4965609;28;20113;-68
2020/12/29 06:09:02;;;;;;;6.00;1.90;;;14.70;65.10;;;;;;4978630;28;20038;-68
2020/12/29 06:11:37;;;;;;;15.85;14.13;;;14.70;65.20;;;;;;4968477;28;20030;-68
2020/12/29 06:14:14;;;;;;;9.25;5.47;;;14.80;65.30;;;;;;4953893;28;20031;-68
2020/12/29 06:16:42;;;;;;;11.48;3.80;;;14.80;65.50;;;;;;4964268;28;20540;-66
2020/12/29 06:19:20;;;;;;;9.82;5.90;;;14.90;65.70;;;;;;4968835;28;20030;-66
2020/12/29 06:22:12;;;;;;;10.20;5.78;;;14.90;65.90;;;;;;4956198;28;20049;-67
2020/12/29 06:24:47;;;;;;;9.55;4.72;;;15.00;65.70;;;;;;4961985;28;20070;-69
2020/12/29 06:27:14;;;;;;;12.75;4.90;;;15.00;65.50;;;;;;4964615;28;20034;-65
2020/12/29 06:29:44;;;;;;;9.15;4.07;;;15.10;65.00;;;;;;4955286;28;20033;-64
2020/12/29 06:32:19;;;;;;;7.70;3.58;;;15.20;64.80;;;;;;4964427;28;20038;-65
2020/12/29 06:34:46;;;;;;;5.80;3.30;;;15.30;64.50;;;;;;4952281;28;20116;-69
2020/12/29 06:37:24;;;;;;;9.27;3.10;;;15.50;64.60;;;;;;4984873;28;20034;-69
2020/12/29 06:39:55;;;;;;;9.80;3.40;;;15.60;64.40;;;;;;4982319;28;20036;-70
2020/12/29 06:42:21;;;;;;;6.88;3.20;;;15.70;64.40;;;;;;4975928;28;20038;-70
2020/12/29 06:44:54;;;;;;;7.55;2.97;;;15.70;63.80;;;;;;4965267;28;20057;-69
2020/12/29 06:47:22;;;;;;;14.10;3.30;;;15.70;63.70;;;;;;4981062;28;20148;-69
2020/12/29 06:49:47;;;;;;;7.85;3.17;;;15.70;63.70;;;;;;4970104;28;20027;-69
2020/12/29 06:52:23;;;;;;;9.82;2.92;;;15.80;63.90;;;;;;4974601;28;20400;-71
2020/12/29 06:54:55;;;;;;;7.53;2.80;;;15.80;63.90;;;;;;4953007;28;20638;-69
2020/12/29 06:57:23;;;;;;;8.05;3.00;;;15.80;64.30;;;;;;4963359;28;20387;-70
2020/12/29 06:59:49;;;;;;;5.95;2.70;;;15.80;64.00;;;;;;4962739;28;20540;-70
2020/12/29 07:02:22;;;;;;;8.73;2.90;;;15.70;64.00;;;;;;4980055;28;20034;-68
2020/12/29 07:04:55;;;;;;;7.25;3.10;;;15.70;64.50;;;;;;4981062;28;20038;-68
2020/12/29 07:07:26;;;;;;;6.30;2.20;;;15.60;64.50;;;;;;4962169;28;20113;-70
2020/12/29 07:09:59;;;;;;;5.07;2.60;;;15.60;64.90;;;;;;4980205;28;20046;-69
2020/12/29 07:12:29;;;;;;;6.88;2.80;;;15.50;65.20;;;;;;4981242;28;20045;-70
2020/12/29 07:14:54;;;;;;;9.40;3.20;;;15.60;65.40;;;;;;4962596;28;21409;-68
2020/12/29 07:17:27;;;;;;;7.28;2.80;;;15.50;64.30;;;;;;4980191;28;20077;-70
2020/12/29 07:19:54;;;;;;;10.23;2.95;;;15.50;63.30;;;;;;4980672;28;20026;-71
2020/12/29 07:22:20;;;;;;;48.22;25.95;;;15.50;62.80;;;;;;4985144;28;20028;-71
2020/12/29 07:24:46;;;;;;;86.57;45.15;;;15.40;62.80;;;;;;4984698;28;20622;-70
2020/12/29 07:27:13;;;;;;;54.22;28.45;;;15.50;63.40;;;;;;4966984;28;20515;-72
2020/12/29 07:29:58;;;;;;;45.17;29.85;;;15.50;63.50;;;;;;4986662;28;20034;-72
2020/12/29 07:32:25;;;;;;;39.92;29.67;;;15.50;63.60;;;;;;4986303;28;20036;-72
2020/12/29 07:34:50;;;;;;;31.73;20.33;;;15.60;63.70;;;;;;4971052;28;20491;-71
2020/12/29 07:37:20;;;;;;;28.60;17.13;;;15.50;63.90;;;;;;4988095;28;20042;-71
2020/12/29 07:39:45;;;;;;;25.67;15.32;;;15.50;64.10;;;;;;4986752;28;20026;-69
2020/12/29 07:42:14;;;;;;;25.48;13.98;;;15.50;64.30;;;;;;4988724;28;20038;-72
2020/12/29 07:44:40;;;;;;;23.02;12.57;;;15.40;64.50;;;;;;4988326;28;20026;-72
2020/12/29 07:47:06;;;;;;;21.50;11.80;;;15.40;64.70;;;;;;4971146;28;20034;-72
2020/12/29 07:49:32;;;;;;;20.67;11.77;;;15.40;65.00;;;;;;4988598;28;20036;-70
2020/12/29 07:51:58;;;;;;;18.60;11.05;;;15.40;65.00;;;;;;4988476;28;20045;-73
2020/12/29 07:54:23;;;;;;;17.98;10.38;;;15.30;65.10;;;;;;4969709;28;20513;-71
2020/12/29 07:56:49;;;;;;;18.00;10.02;;;15.30;65.30;;;;;;4988602;28;20043;-71
2020/12/29 07:59:15;;;;;;;17.02;9.32;;;15.30;65.40;;;;;;4971557;28;20027;-71
2020/12/29 08:01:55;;;;;;;16.23;8.68;;;15.20;65.40;;;;;;4987189;28;20022;-72
2020/12/29 08:04:31;;;;;;;17.20;9.27;;;15.20;65.40;;;;;;4985323;28;20034;-71
2020/12/29 08:06:59;;;;;;;17.85;9.23;;;15.20;65.40;;;;;;4986277;28;20037;-71
2020/12/29 08:09:25;;;;;;;16.15;8.93;;;15.20;65.80;;;;;;4987158;28;20663;-72
2020/12/29 08:11:51;;;;;;;16.00;8.05;;;15.20;65.80;;;;;;4988214;28;20039;-71
2020/12/29 08:14:17;;;;;;;14.15;7.80;;;15.20;65.90;;;;;;4971075;28;20057;-72
2020/12/29 08:16:43;;;;;;;14.45;7.90;;;15.10;65.70;;;;;;4970757;28;20088;-72
2020/12/29 08:19:11;;;;;;;15.95;8.45;;;15.20;65.90;;;;;;4989433;28;20093;-70
2020/12/29 08:21:38;;;;;;;14.27;7.47;;;15.20;66.00;;;;;;4984164;28;20027;-71
2020/12/29 08:24:05;;;;;;;15.40;7.80;;;15.20;66.00;;;;;;4962862;28;20044;-70
2020/12/29 08:26:30;;;;;;;13.57;8.05;;;15.20;66.10;;;;;;4974353;28;20546;-71
2020/12/29 08:28:56;;;;;;;13.27;7.50;;;15.20;66.30;;;;;;4984689;28;20034;-71
2020/12/29 08:31:23;;;;;;;16.02;7.25;;;15.20;66.40;;;;;;4963052;28;20030;-70
2020/12/29 08:33:53;;;;;;;13.07;6.75;;;15.20;66.50;;;;;;4975782;28;20033;-71
2020/12/29 08:36:24;;;;;;;13.30;7.03;;;15.10;66.50;;;;;;4977768;28;20030;-73
2020/12/29 08:39:19;;;;;;;12.85;6.70;;;15.10;66.50;;;;;;4990767;28;20487;-71
2020/12/29 08:41:53;;;;;;;12.18;6.20;;;15.10;66.40;;;;;;4981457;28;20054;-71
2020/12/29 08:44:19;;;;;;;12.25;6.18;;;15.10;66.70;;;;;;4990166;28;20053;-71
2020/12/29 08:46:45;;;;;;;10.63;6.05;;;15.10;66.60;;;;;;4978888;28;20117;-71
2020/12/29 08:49:10;;;;;;;11.98;5.85;;;15.10;66.60;;;;;;4968290;28;20110;-70
2020/12/29 08:51:44;;;;;;;12.15;5.55;;;15.10;66.60;;;;;;4958627;28;20019;-71
2020/12/29 08:54:14;;;;;;;10.98;5.85;;;15.10;66.60;;;;;;4989899;28;20125;-69
2020/12/29 08:56:40;;;;;;;10.82;5.18;;;15.10;66.50;;;;;;4977892;28;20022;-71
2020/12/29 08:59:17;;;;;;;9.85;5.30;;;15.10;66.60;;;;;;4975888;28;20089;-72
2020/12/29 09:01:55;;;;;;;9.95;5.38;;;15.10;66.10;;;;;;4981394;28;20053;-71
2020/12/29 09:04:30;;;;;;;12.55;5.63;;;15.20;66.20;;;;;;4976021;28;20102;-72
2020/12/29 09:07:00;;;;;;;12.10;5.35;;;15.20;66.00;;;;;;4980022;28;20030;-72
2020/12/29 09:09:27;;;;;;;10.25;5.03;;;15.20;66.10;;;;;;4983531;28;20065;-72
2020/12/29 09:12:12;;;;;;;10.85;5.13;;;15.20;66.10;;;;;;4987316;28;20085;-71
2020/12/29 09:14:55;;;;;;;11.48;5.55;;;15.40;66.30;;;;;;4976351;28;20033;-71
2020/12/29 09:17:22;;;;;;;9.85;4.78;;;15.30;66.20;;;;;;4975724;28;20125;-72
2020/12/29 09:20:13;;;;;;;9.48;4.72;;;15.40;66.40;;;;;;4980319;28;20025;-73
2020/12/29 09:22:49;;;;;;;9.25;4.20;;;15.40;66.30;;;;;;4985298;28;20110;-72
2020/12/29 09:25:25;;;;;;;13.00;5.03;;;15.30;66.40;;;;;;4962748;28;20118;-69
2020/12/29 09:28:12;;;;;;;25.83;5.55;;;15.40;66.60;;;;;;4974405;28;20377;-71
2020/12/29 09:30:38;;;;;;;15.57;5.30;;;15.40;66.50;;;;;;4990219;28;20034;-72
2020/12/29 09:33:04;;;;;;;11.98;4.88;;;15.40;66.50;;;;;;4981724;28;20030;-72
2020/12/29 09:35:30;;;;;;;10.70;5.00;;;15.40;66.50;;;;;;4966552;28;20029;-71
2020/12/29 09:37:57;;;;;;;12.05;4.43;;;15.40;66.60;;;;;;4983958;28;20022;-71
2020/12/29 09:40:23;;;;;;;15.50;4.43;;;15.50;66.60;;;;;;4979950;28;20031;-68
2020/12/29 09:42:50;;;;;;;11.40;4.53;;;15.50;66.60;;;;;;4983957;28;20035;-68
2020/12/29 09:45:24;;;;;;;12.25;4.47;;;15.40;66.50;;;;;;4980803;28;20786;-72
2020/12/29 09:47:49;;;;;;;13.68;5.07;;;15.40;66.60;;;;;;4964291;28;20050;-70
2020/12/29 09:50:16;;;;;;;11.95;4.57;;;15.40;66.50;;;;;;4963392;28;20062;-70
2020/12/29 09:52:42;;;;;;;14.27;4.15;;;15.50;66.60;;;;;;4964498;28;20050;-70
2020/12/29 09:55:07;;;;;;;13.52;4.85;;;15.60;66.20;;;;;;4981124;28;20442;-70
2020/12/29 09:57:33;;;;;;;14.38;4.25;;;15.70;65.80;;;;;;4964095;28;20558;-71
2020/12/29 09:59:59;;;;;;;9.65;4.45;;;15.90;65.60;;;;;;4982610;28;20101;-69
2020/12/29 10:02:25;;;;;;;10.10;3.72;;;15.90;65.20;;;;;;4963141;28;20514;-70
2020/12/29 10:04:50;;;;;;;10.27;4.00;;;16.00;64.90;;;;;;4963879;28;20026;-69
2020/12/29 10:07:16;;;;;;;9.45;4.28;;;16.00;64.70;;;;;;4966654;28;20030;-71
2020/12/29 10:09:42;;;;;;;9.35;3.63;;;15.90;64.90;;;;;;4965353;28;20030;-70
2020/12/29 10:12:08;;;;;;;10.20;3.53;;;15.80;65.30;;;;;;4962551;28;20109;-71
2020/12/29 10:14:33;;;;;;;8.13;3.55;;;15.80;65.60;;;;;;4983571;28;20031;-70
2020/12/29 10:16:59;;;;;;;9.77;3.60;;;15.70;65.70;;;;;;4979454;28;20109;-71
2020/12/29 10:19:24;;;;;;;7.60;3.10;;;15.70;65.50;;;;;;4965622;28;20065;-71
2020/12/29 10:21:51;;;;;;;8.70;3.60;;;15.70;65.70;;;;;;4981099;28;20070;-71
2020/12/29 10:24:17;;;;;;;7.03;3.60;;;15.70;66.20;;;;;;4982821;28;20726;-72
2020/12/29 10:26:42;;;;;;;10.07;3.90;;;15.70;65.70;;;;;;4965924;28;20038;-71
2020/12/29 10:29:08;;;;;;;6.47;3.20;;;15.60;65.40;;;;;;4985796;28;20107;-71
2020/12/29 10:31:33;;;;;;;8.32;3.42;;;15.50;64.90;;;;;;4986006;28;20524;-72
2020/12/29 10:34:02;;;;;;;7.50;3.33;;;15.60;64.90;;;;;;4963142;28;20031;-70
2020/12/29 10:36:38;;;;;;;7.22;3.00;;;15.60;64.70;;;;;;4966986;28;20499;-71
2020/12/29 10:39:04;;;;;;;7.80;3.35;;;15.60;64.30;;;;;;4980516;28;20027;-71
2020/12/29 10:41:31;;;;;;;8.10;3.47;;;15.50;64.30;;;;;;4963229;28;20503;-70
2020/12/29 10:43:57;;;;;;;9.40;3.00;;;15.50;64.10;;;;;;4980177;28;20030;-71
2020/12/29 10:46:23;;;;;;;9.95;3.40;;;15.50;64.00;;;;;;4982477;28;20025;-70
2020/12/29 10:48:50;;;;;;;6.82;3.15;;;15.60;63.90;;;;;;4966468;28;20026;-70
2020/12/29 10:51:23;;;;;;;9.20;3.03;;;15.50;63.70;;;;;;4981301;28;20030;-71
2020/12/29 10:53:49;;;;;;;9.88;2.90;;;15.50;63.50;;;;;;4962246;28;20023;-71
2020/12/29 10:56:15;;;;;;;7.60;3.03;;;15.50;63.60;;;;;;4965327;28;20050;-71
2020/12/29 10:58:42;;;;;;;8.05;3.47;;;15.50;63.40;;;;;;4961228;28;20546;-71
2020/12/29 11:01:11;;;;;;;11.20;4.57;;;15.50;63.30;;;;;;4981834;28;20073;-71
2020/12/29 11:03:37;;;;;;;9.75;3.75;;;15.50;63.20;;;;;;4983216;28;20058;-69
2020/12/29 11:06:13;;;;;;;8.70;4.35;;;15.40;62.90;;;;;;4960189;28;20132;-71
2020/12/29 11:08:39;;;;;;;10.27;4.10;;;15.40;62.90;;;;;;4965292;28;20064;-71
2020/12/29 11:11:05;;;;;;;10.57;4.40;;;15.40;62.90;;;;;;4979491;28;20062;-71
2020/12/29 11:13:30;;;;;;;14.45;5.20;;;15.40;62.80;;;;;;4962799;28;20411;-70
2020/12/29 11:15:56;;;;;;;12.00;4.70;;;15.40;62.80;;;;;;4963546;28;20033;-71
2020/12/29 11:18:21;;;;;;;10.90;4.85;;;15.40;62.70;;;;;;4961679;28;20027;-72
2020/12/29 11:20:51;;;;;;;10.80;4.80;;;15.40;62.90;;;;;;4978133;28;20041;-71
2020/12/29 11:23:16;;;;;;;14.45;5.50;;;15.30;62.90;;;;;;4979563;28;20558;-71
2020/12/29 11:25:42;;;;;;;12.20;5.22;;;15.30;62.90;;;;;;4980345;28;20030;-72
2020/12/29 11:28:08;;;;;;;12.30;5.00;;;15.30;63.00;;;;;;4978684;28;20058;-72
2020/12/29 11:30:33;;;;;;;14.77;5.70;;;15.30;63.00;;;;;;4964988;28;20031;-70
2020/12/29 11:32:59;;;;;;;13.63;6.05;;;15.20;63.00;;;;;;4963641;28;20019;-70
2020/12/29 11:35:24;;;;;;;15.20;6.00;;;15.20;63.00;;;;;;4978519;28;20400;-71
2020/12/29 11:37:50;;;;;;;16.70;7.15;;;15.20;63.00;;;;;;4967123;28;20071;-71
2020/12/29 11:40:15;;;;;;;15.25;6.50;;;15.20;63.10;;;;;;4963735;28;20054;-68
2020/12/29 11:42:41;;;;;;;13.95;6.97;;;15.20;63.10;;;;;;4990756;28;20037;-70
2020/12/29 11:45:06;;;;;;;15.82;6.95;;;15.20;63.20;;;;;;4973399;28;20038;-72
2020/12/29 11:47:32;;;;;;;16.77;6.82;;;15.10;63.10;;;;;;4962667;28;20042;-71
2020/12/29 11:49:57;;;;;;;14.95;6.82;;;15.10;63.20;;;;;;4967900;28;20073;-71
2020/12/29 11:52:23;;;;;;;16.90;6.95;;;15.10;63.20;;;;;;4957390;28;20388;-71
2020/12/29 11:54:50;;;;;;;15.23;6.57;;;15.00;63.20;;;;;;4990127;28;20158;-71
2020/12/29 11:57:15;;;;;;;13.75;6.78;;;15.00;63.30;;;;;;4964825;28;20031;-71
2020/12/29 11:59:41;;;;;;;14.57;6.30;;;15.00;63.20;;;;;;4980407;28;20388;-71
2020/12/29 12:02:06;;;;;;;15.00;7.20;;;15.00;63.30;;;;;;4986768;28;20088;-71
2020/12/29 12:04:32;;;;;;;15.43;7.13;;;14.90;63.10;;;;;;4975713;28;20153;-70
2020/12/29 12:06:57;;;;;;;15.57;7.50;;;14.90;63.30;;;;;;4989090;28;20256;-71
2020/12/29 12:09:23;;;;;;;14.38;6.85;;;15.00;63.00;;;;;;4986994;28;20491;-72
2020/12/29 12:11:48;;;;;;;11.75;5.82;;;14.90;62.70;;;;;;4957917;28;20022;-71
2020/12/29 12:14:14;;;;;;;13.40;5.90;;;14.90;62.60;;;;;;4960529;28;20050;-70
2020/12/29 12:16:40;;;;;;;14.73;6.00;;;14.90;62.50;;;;;;4973083;28;20030;-72
2020/12/29 12:19:06;;;;;;;12.18;6.03;;;14.90;62.60;;;;;;4982248;28;20057;-71
2020/12/29 12:21:33;;;;;;;12.82;6.40;;;14.90;62.60;;;;;;4966012;28;20664;-70
2020/12/29 12:23:59;;;;;;;12.55;5.93;;;14.80;62.40;;;;;;4989160;28;20052;-71
2020/12/29 12:26:25;;;;;;;12.30;6.10;;;14.90;62.50;;;;;;4987968;28;20026;-68
2020/12/29 12:28:51;;;;;;;13.25;6.05;;;14.80;62.20;;;;;;4973891;28;20533;-70
2020/12/29 12:31:17;;;;;;;13.30;5.55;;;14.80;62.90;;;;;;4980143;28;20034;-70
2020/12/29 12:33:43;;;;;;;15.68;6.28;;;14.80;62.40;;;;;;4970646;28;20026;-71
2020/12/29 12:36:09;;;;;;;10.68;5.43;;;14.80;62.50;;;;;;4969087;28;20023;-70
2020/12/29 12:38:35;;;;;;;13.63;5.72;;;14.80;62.40;;;;;;4965179;28;20034;-70
2020/12/29 12:41:01;;;;;;;12.27;5.10;;;14.80;62.50;;;;;;4982827;28;20026;-71
2020/12/29 12:43:27;;;;;;;10.65;5.20;;;14.80;62.60;;;;;;4981638;28;20035;-71
2020/12/29 12:45:53;;;;;;;10.05;5.05;;;14.80;62.60;;;;;;4986902;28;21595;-71